Time;durP1;ratioP1;P1;durP2;ratioP2;P2;SDS_P1;SDS_P2;PMS_P1;PMS_P2;Temp;Humidity;BMP_temperature;BMP_pressure;BME280_temperature;BME280_humidity;BME280_pressure;Samples;Min_cycle;Max_cycle;Signal;HPM_P1;HPM_P2
2022/07/04 00:00:37;;;;;;;1.65;1.33;;;;;;;20.72;48.66;99116.22;2620164;39;20442;-65
2022/07/04 00:03:09;;;;;;;2.85;1.73;;;;;;;20.64;48.89;99114.81;2619571;54;20019;-68
2022/07/04 00:05:39;;;;;;;2.20;1.50;;;;;;;20.61;49.33;99107.25;2620005;54;20063;-66
2022/07/04 00:08:08;;;;;;;2.47;1.70;;;;;;;20.56;49.17;99109.06;2619217;54;20025;-68
2022/07/04 00:10:38;;;;;;;2.25;1.13;;;;;;;20.37;49.55;99113.88;2619428;54;20030;-67
2022/07/04 00:13:08;;;;;;;1.88;1.17;;;;;;;20.33;49.56;99107.38;2619089;47;20033;-65
2022/07/04 00:15:37;;;;;;;3.67;1.40;;;;;;;20.15;49.99;99113.88;2619437;54;20788;-66
2022/07/04 00:18:09;;;;;;;3.83;1.30;;;;;;;20.10;49.58;99103.88;2619456;54;20553;-66
2022/07/04 00:20:39;;;;;;;4.05;1.40;;;;;;;20.00;50.23;99109.09;2619247;54;20029;-67
2022/07/04 00:23:08;;;;;;;2.42;1.30;;;;;;;19.93;49.73;99114.63;2619379;54;20564;-67
2022/07/04 00:25:38;;;;;;;2.60;1.23;;;;;;;19.98;49.95;99103.16;2618860;51;20035;-67
2022/07/04 00:28:08;;;;;;;2.15;1.10;;;;;;;19.96;50.03;99105.28;2618960;54;20067;-67
2022/07/04 00:30:37;;;;;;;5.65;1.40;;;;;;;20.00;49.72;99106.41;2617481;54;20027;-67
2022/07/04 00:33:13;;;;;;;1.85;1.40;;;;;;;20.00;49.38;99109.09;2618410;54;20050;-67
2022/07/04 00:35:43;;;;;;;3.42;1.33;;;;;;;19.91;49.40;99111.38;2618523;54;20077;-67
2022/07/04 00:38:12;;;;;;;2.38;1.30;;;;;;;19.93;49.49;99108.47;2618468;54;20065;-66
2022/07/04 00:40:42;;;;;;;2.45;1.35;;;;;;;19.90;49.88;99107.06;2617497;47;20022;-66
2022/07/04 00:43:11;;;;;;;2.92;1.00;;;;;;;19.87;49.59;99112.13;2617805;54;20556;-66
2022/07/04 00:45:41;;;;;;;2.40;0.98;;;;;;;19.83;49.14;99113.66;2618173;54;20050;-67
2022/07/04 00:48:15;;;;;;;2.03;1.10;;;;;;;19.79;49.34;99122.19;2618113;47;20035;-65
2022/07/04 00:50:45;;;;;;;1.92;1.40;;;;;;;19.68;49.44;99133.03;2617581;54;20542;-66
2022/07/04 00:53:15;;;;;;;3.40;1.27;;;;;;;19.68;49.42;99130.34;2618989;54;20034;-66
2022/07/04 00:55:45;;;;;;;2.55;1.08;;;;;;;19.65;49.30;99144.25;2618335;54;20019;-68
2022/07/04 00:58:15;;;;;;;3.20;1.10;;;;;;;19.66;49.20;99143.19;2617969;54;20062;-67
2022/07/04 01:00:45;;;;;;;2.75;1.10;;;;;;;19.44;49.31;99157.28;2618450;54;20046;-67
2022/07/04 01:03:17;;;;;;;4.88;1.23;;;;;;;19.36;49.63;99164.91;2618792;39;20427;-66
2022/07/04 01:05:47;;;;;;;2.53;1.23;;;;;;;19.33;50.22;99171.53;2617622;54;20034;-67
2022/07/04 01:08:18;;;;;;;2.58;1.20;;;;;;;19.37;49.85;99177.25;2618580;54;20030;-67
2022/07/04 01:10:48;;;;;;;3.03;1.30;;;;;;;19.36;49.94;99175.63;2617515;54;20573;-67
2022/07/04 01:13:24;;;;;;;2.80;1.30;;;;;;;19.29;50.03;99179.25;2618713;39;20462;-66
2022/07/04 01:15:53;;;;;;;4.03;1.67;;;;;;;19.30;49.91;99180.06;2618242;39;20426;-67
2022/07/04 01:18:26;;;;;;;2.78;1.42;;;;;;;19.36;49.80;99183.66;2617822;54;20050;-67
2022/07/04 01:20:58;;;;;;;1.90;1.13;;;;;;;19.37;49.57;99183.41;2621623;47;20038;-68
2022/07/04 01:23:28;;;;;;;2.25;1.30;;;;;;;19.25;49.72;99196.84;2623653;47;20034;-65
2022/07/04 01:25:59;;;;;;;3.22;1.20;;;;;;;19.16;50.00;99189.44;2619040;54;20030;-67
2022/07/04 01:28:28;;;;;;;4.57;1.50;;;;;;;18.97;50.57;99189.63;2621229;54;20546;-67
2022/07/04 01:30:58;;;;;;;3.97;1.13;;;;;;;18.76;51.33;99198.28;2625180;54;20601;-66
2022/07/04 01:33:27;;;;;;;3.13;1.15;;;;;;;18.74;51.77;99203.91;2625408;54;20086;-67
2022/07/04 01:36:00;;;;;;;3.10;1.23;;;;;;;18.86;51.48;99201.19;2625524;54;20022;-68
2022/07/04 01:38:30;;;;;;;6.90;1.25;;;;;;;18.88;51.71;99203.63;2627530;39;20674;-66
2022/07/04 01:41:00;;;;;;;3.08;1.10;;;;;;;18.91;51.70;99205.84;2624271;54;20015;-67
2022/07/04 01:43:29;;;;;;;1.50;1.00;;;;;;;18.86;51.59;99209.22;2618201;54;20025;-66
2022/07/04 01:45:59;;;;;;;4.40;1.52;;;;;;;18.80;51.35;99210.16;2618068;54;20055;-67
2022/07/04 01:48:28;;;;;;;3.97;1.25;;;;;;;18.59;52.23;99205.41;2617449;54;20081;-66
2022/07/04 01:51:00;;;;;;;1.55;1.05;;;;;;;18.37;52.64;99203.31;2617524;47;20029;-67
2022/07/04 01:53:30;;;;;;;1.52;0.90;;;;;;;18.29;53.08;99201.00;2618662;54;20053;-66
2022/07/04 01:56:00;;;;;;;1.98;1.23;;;;;;;18.31;53.12;99205.06;2618434;54;20061;-67
2022/07/04 01:58:30;;;;;;;2.05;1.20;;;;;;;18.14;53.74;99214.81;2617889;54;20030;-67
2022/07/04 02:03:41;;;;;;;2.70;1.30;;;;;;;18.04;54.27;99209.22;2620601;54;20158;-66
2022/07/04 02:06:14;;;;;;;1.52;1.33;;;;;;;18.07;54.14;99214.13;2624290;46;20041;-66
2022/07/04 02:11:25;;;;;;;1.20;1.10;;;;;;;18.17;54.15;99219.72;2624366;54;20826;-66
2022/07/04 02:13:52;;;;;;;1.80;1.30;;;;;;;18.28;53.89;99218.09;2624206;47;20038;-66
2022/07/04 02:16:22;;;;;;;1.50;1.40;;;;;;;18.35;53.72;99218.78;2623543;54;20030;-66
2022/07/04 02:18:51;;;;;;;2.40;1.65;;;;;;;18.22;53.76;99217.16;2620247;54;20037;-66
2022/07/04 02:21:24;;;;;;;6.15;1.77;;;;;;;18.21;54.38;99206.69;2621880;54;20038;-67
2022/07/04 02:23:53;;;;;;;2.63;1.13;;;;;;;18.16;54.25;99209.22;2620092;54;20038;-66
2022/07/04 02:26:23;;;;;;;5.72;1.73;;;;;;;18.13;54.64;99204.38;2618214;54;20549;-67
2022/07/04 02:28:53;;;;;;;3.80;1.92;;;;;;;18.00;55.12;99208.06;2617601;54;20027;-67
2022/07/04 02:31:23;;;;;;;2.13;1.38;;;;;;;17.92;55.10;99203.88;2618074;54;20027;-67
2022/07/04 02:33:52;;;;;;;2.05;1.50;;;;;;;17.87;55.35;99200.25;2618150;54;20613;-67
2022/07/04 02:36:24;;;;;;;3.40;1.70;;;;;;;17.85;55.46;99205.03;2618089;54;20584;-67
2022/07/04 02:38:54;;;;;;;2.17;1.42;;;;;;;17.82;55.36;99207.09;2617276;54;20039;-67
2022/07/04 02:41:23;;;;;;;2.20;1.30;;;;;;;17.69;56.06;99207.28;2617240;54;20030;-67
2022/07/04 02:43:54;;;;;;;2.08;1.40;;;;;;;17.55;56.30;99198.66;2618115;54;20026;-67
2022/07/04 02:46:23;;;;;;;2.75;1.40;;;;;;;17.39;57.01;99211.81;2618063;54;20034;-67
2022/07/04 02:48:53;;;;;;;5.40;1.88;;;;;;;17.34;57.20;99210.66;2617206;47;20031;-66
2022/07/04 02:51:25;;;;;;;3.42;2.17;;;;;;;17.41;57.04;99220.44;2617842;54;20027;-67
2022/07/04 02:53:55;;;;;;;1.52;1.40;;;;;;;17.33;57.65;99221.56;2618229;54;20046;-67
2022/07/04 02:56:24;;;;;;;2.63;1.70;;;;;;;17.32;57.21;99225.28;2618100;54;20546;-66
2022/07/04 02:58:54;;;;;;;4.05;1.73;;;;;;;17.25;57.33;99216.53;2618768;54;20035;-66
2022/07/04 03:01:24;;;;;;;1.52;1.42;;;;;;;17.17;57.69;99223.00;2617870;54;20047;-66
2022/07/04 03:03:53;;;;;;;5.45;1.42;;;;;;;17.08;57.25;99227.03;2617971;54;20030;-67
2022/07/04 03:06:25;;;;;;;3.40;1.40;;;;;;;16.93;58.30;99229.25;2617855;54;20034;-66
2022/07/04 03:08:55;;;;;;;3.22;1.58;;;;;;;16.88;58.16;99239.81;2617299;54;20038;-66
2022/07/04 03:11:25;;;;;;;2.33;1.77;;;;;;;16.83;58.55;99237.81;2617513;54;20029;-63
2022/07/04 03:13:54;;;;;;;2.28;1.60;;;;;;;16.81;58.38;99242.53;2617165;54;20018;-66
2022/07/04 03:16:24;;;;;;;2.17;1.52;;;;;;;16.88;58.73;99245.13;2617465;54;20023;-66
2022/07/04 03:18:53;;;;;;;2.40;1.60;;;;;;;16.97;58.38;99246.47;2617685;54;20037;-66
2022/07/04 03:21:25;;;;;;;1.63;1.40;;;;;;;17.05;57.95;99248.84;2617734;54;20562;-65
2022/07/04 03:23:59;;;;;;;4.75;1.30;;;;;;;17.12;57.85;99254.94;2617142;54;20076;-65
2022/07/04 03:26:31;;;;;;;2.45;1.50;;;;;;;17.16;57.95;99255.28;2617948;54;20081;-66
2022/07/04 03:29:02;;;;;;;2.60;1.65;;;;;;;17.16;58.13;99257.97;2617654;39;20410;-64
2022/07/04 03:31:32;;;;;;;4.72;1.77;;;;;;;17.13;57.86;99261.09;2618247;39;20424;-66
2022/07/04 03:34:02;;;;;;;2.58;1.55;;;;;;;17.08;58.24;99253.75;2617605;39;20399;-66
2022/07/04 03:36:34;;;;;;;2.17;1.73;;;;;;;17.08;58.23;99254.56;2618398;31;20522;-65
2022/07/04 03:39:04;;;;;;;2.38;1.60;;;;;;;17.02;58.60;99255.47;2616713;47;20030;-66
2022/07/04 03:41:34;;;;;;;2.22;1.55;;;;;;;16.94;58.78;99258.44;2616924;54;20034;-66
2022/07/04 03:44:03;;;;;;;3.05;1.75;;;;;;;16.95;58.66;99256.56;2617462;54;20037;-65
2022/07/04 03:46:33;;;;;;;6.93;1.70;;;;;;;16.91;58.74;99258.88;2617829;54;20063;-66
2022/07/04 03:49:02;;;;;;;2.10;1.52;;;;;;;16.94;59.10;99258.44;2617769;54;20085;-66
2022/07/04 03:51:35;;;;;;;4.20;1.63;;;;;;;16.93;58.55;99258.63;2617560;39;20446;-66
2022/07/04 03:54:04;;;;;;;2.50;1.60;;;;;;;16.87;59.05;99259.53;2617181;54;20059;-64
2022/07/04 03:56:34;;;;;;;3.67;1.52;;;;;;;16.74;58.77;99250.63;2616966;54;20049;-68
2022/07/04 03:59:03;;;;;;;1.60;1.50;;;;;;;16.67;59.41;99255.19;2617348;54;20027;-65
2022/07/04 04:01:33;;;;;;;2.10;1.42;;;;;;;16.62;59.19;99255.03;2592102;54;20031;-67
2022/07/04 04:06:47;;;;;;;5.60;1.90;;;;;;;16.69;59.70;99257.63;2618536;54;20026;-66
2022/07/04 04:09:19;;;;;;;2.00;1.63;;;;;;;16.65;59.56;99254.56;2618238;54;20549;-67
2022/07/04 04:11:48;;;;;;;4.40;1.60;;;;;;;16.64;59.51;99260.16;2618687;54;20042;-66
2022/07/04 07:31:00;;;;;;;2.65;1.50;;;;;;;20.48;47.38;99264.19;2567496;54;20074;-66
2022/07/04 07:33:29;;;;;;;5.57;1.40;;;;;;;20.39;47.67;99259.44;2615968;54;20042;-64
2022/07/04 07:35:59;;;;;;;6.50;1.48;;;;;;;20.45;47.83;99258.44;2617019;47;20053;-64
2022/07/04 07:38:28;;;;;;;3.28;1.73;;;;;;;20.60;47.12;99247.97;2617286;54;20034;-64
2022/07/04 07:40:58;;;;;;;5.47;1.42;;;;;;;20.71;46.38;99251.63;2618149;54;20030;-65
2022/07/04 07:43:28;;;;;;;3.40;1.20;;;;;;;20.74;46.28;99246.56;2618223;54;20086;-64
2022/07/04 07:46:01;;;;;;;5.80;1.60;;;;;;;20.81;46.22;99256.31;2620207;54;20034;-64
2022/07/04 07:48:30;;;;;;;2.40;1.42;;;;;;;20.88;46.48;99256.94;2619572;54;20034;-64
2022/07/04 07:51:00;;;;;;;2.65;0.88;;;;;;;20.80;45.99;99252.81;2619382;54;20066;-63
2022/07/04 07:53:30;;;;;;;3.08;1.48;;;;;;;20.90;46.38;99246.75;2618816;54;20038;-64
2022/07/04 07:55:59;;;;;;;2.10;1.30;;;;;;;21.02;45.91;99252.81;2618828;54;20034;-63
2022/07/04 07:58:30;;;;;;;2.00;1.20;;;;;;;20.92;45.36;99255.41;2620164;54;20034;-63
2022/07/04 08:01:02;;;;;;;3.30;1.42;;;;;;;20.96;45.63;99251.94;2620336;54;20039;-63
2022/07/04 08:06:22;;;;;;;3.10;1.60;;;;;;;21.32;45.48;99251.59;2617935;54;20027;-63
2022/07/04 08:08:52;;;;;;;5.18;1.48;;;;;;;21.51;44.77;99250.19;2619409;54;20026;-63
2022/07/04 08:11:22;;;;;;;1.95;1.05;;;;;;;21.58;43.41;99244.63;2620626;54;20046;-63
2022/07/04 08:13:51;;;;;;;1.65;1.20;;;;;;;21.39;44.12;99247.66;2622111;54;20045;-64
2022/07/04 08:16:24;;;;;;;3.45;1.20;;;;;;;21.36;44.11;99242.78;2622092;54;20038;-63
2022/07/04 08:19:13;;;;;;;2.97;1.58;;;;;;;21.37;44.20;99247.09;2624631;31;20507;-62
2022/07/04 08:21:43;;;;;;;4.20;1.48;;;;;;;21.45;44.66;99240.47;2622576;39;20407;-63
2022/07/04 08:24:32;;;;;;;2.65;1.63;;;;;;;21.66;43.68;99247.66;2621466;54;20078;-63
2022/07/04 08:27:02;;;;;;;4.68;1.40;;;;;;;21.71;43.53;99247.69;2620467;47;20037;-64
2022/07/04 08:29:32;;;;;;;9.45;1.50;;;;;;;21.75;43.70;99240.75;2620468;54;20092;-63
2022/07/04 08:32:07;;;;;;;3.67;1.20;;;;;;;21.85;43.37;99245.44;2620488;39;20686;-64
2022/07/04 08:34:38;;;;;;;2.75;1.05;;;;;;;21.78;43.55;99242.13;2619418;54;20022;-63
2022/07/04 08:37:08;;;;;;;4.10;1.20;;;;;;;21.84;43.20;99249.19;2619651;39;20395;-63
2022/07/04 08:39:38;;;;;;;2.25;1.30;;;;;;;21.91;43.26;99252.47;2622983;54;20035;-63
2022/07/04 08:42:11;;;;;;;1.10;1.00;;;;;;;21.91;43.10;99251.66;2622325;54;20038;-64
2022/07/04 08:44:42;;;;;;;2.35;0.95;;;;;;;21.99;42.66;99253.88;2619920;54;20030;-63
2022/07/04 08:47:19;;;;;;;1.83;1.10;;;;;;;21.93;42.79;99244.16;2619990;39;20689;-63
2022/07/04 08:49:56;;;;;;;2.45;1.58;;;;;;;21.88;42.88;99241.41;2618610;54;20075;-64
2022/07/04 08:52:35;;;;;;;3.95;1.50;;;;;;;22.08;42.68;99240.75;2619231;54;20031;-64
2022/07/04 09:00:31;;;;;;;4.37;1.23;;;;;;;22.43;41.41;99238.38;2621025;54;20086;-66
2022/07/04 09:03:05;;;;;;;1.27;1.02;;;;;;;22.52;41.18;99235.19;2622463;54;20039;-62
2022/07/04 09:05:35;;;;;;;2.35;1.17;;;;;;;22.57;40.98;99227.94;2621139;54;20031;-62
2022/07/04 09:08:06;;;;;;;2.08;1.13;;;;;;;22.82;41.33;99223.75;2620080;54;20039;-64
2022/07/04 09:10:36;;;;;;;2.08;1.17;;;;;;;23.08;40.31;99214.75;2618723;54;20046;-63
2022/07/04 09:13:07;;;;;;;3.03;1.40;;;;;;;23.18;39.97;99217.47;2619069;54;20034;-62
2022/07/04 09:15:42;;;;;;;7.88;1.95;;;;;;;23.14;40.48;99207.47;2619164;53;20030;-62
2022/07/04 09:18:25;;;;;;;2.42;1.60;;;;;;;23.12;40.12;99210.44;2618567;47;20034;-63
2022/07/04 09:20:55;;;;;;;;;;;;;;;23.12;40.78;99210.44;2619280;54;20038;-62
2022/07/04 09:23:26;;;;;;;4.38;1.30;;;;;;;23.07;40.60;99212.31;2619564;47;19970;-65
2022/07/04 09:26:13;;;;;;;3.35;1.30;;;;;;;23.08;40.51;99213.94;2624183;54;20037;-65
2022/07/04 09:28:45;;;;;;;1.88;1.20;;;;;;;23.19;39.63;99207.50;2622390;54;20037;-63
2022/07/04 09:31:20;;;;;;;1.67;1.20;;;;;;;23.22;39.40;99198.88;2618574;47;20034;-63
2022/07/04 09:33:55;;;;;;;2.83;1.58;;;;;;;23.24;39.43;99200.22;2619110;54;20036;-64
2022/07/04 09:36:27;;;;;;;3.67;1.73;;;;;;;23.19;39.22;99194.03;2619346;54;20018;-63
2022/07/04 09:39:23;;;;;;;2.97;1.10;;;;;;;22.98;39.10;99193.97;2619173;39;20399;-64
2022/07/04 09:41:58;;;;;;;2.47;1.27;;;;;;;23.01;39.05;99194.50;2618196;54;20061;-63
2022/07/04 09:44:29;;;;;;;5.07;1.30;;;;;;;23.15;39.85;99191.03;2619299;54;20026;-64
2022/07/04 09:46:59;;;;;;;3.47;1.63;;;;;;;23.40;38.79;99195.69;2619636;54;20031;-63
2022/07/04 09:49:31;;;;;;;2.22;1.20;;;;;;;23.61;38.35;99179.53;2619067;39;20449;-63
2022/07/04 09:52:00;;;;;;;4.85;1.20;;;;;;;23.66;38.50;99183.06;2618973;54;20067;-64
2022/07/04 09:54:32;;;;;;;2.88;1.20;;;;;;;23.73;38.43;99178.22;2619424;54;20050;-64
2022/07/04 09:57:04;;;;;;;3.13;1.30;;;;;;;23.81;38.23;99178.75;2618746;54;20018;-64
2022/07/04 09:59:34;;;;;;;4.80;1.70;;;;;;;23.94;38.26;99180.91;2621089;54;20027;-65
2022/07/04 10:02:11;;;;;;;2.83;1.83;;;;;;;23.96;37.83;99182.25;2622419;39;20406;-65
2022/07/04 10:04:51;;;;;;;2.72;1.67;;;;;;;24.09;38.36;99180.91;2621146;47;20058;-65
2022/07/04 10:07:43;;;;;;;5.50;1.25;;;;;;;24.26;37.55;99177.09;2622155;39;20439;-65
2022/07/04 10:10:30;;;;;;;1.88;1.00;;;;;;;24.35;37.19;99178.16;2621590;54;20049;-64
2022/07/04 10:13:01;;;;;;;4.28;1.35;;;;;;;24.28;37.27;99177.63;2620801;54;20066;-64
2022/07/04 10:15:31;;;;;;;1.77;1.10;;;;;;;24.31;36.96;99177.06;2621213;54;20041;-64
2022/07/04 10:18:01;;;;;;;2.03;1.58;;;;;;;24.28;36.83;99181.13;2621256;54;20581;-64
2022/07/04 10:20:34;;;;;;;2.13;1.20;;;;;;;24.34;36.82;99179.25;2620583;54;20035;-64
2022/07/04 10:23:04;;;;;;;5.07;1.10;;;;;;;24.42;35.87;99186.81;2619724;54;20050;-64
2022/07/04 10:25:34;;;;;;;2.33;1.10;;;;;;;24.32;36.32;99187.59;2620052;54;20038;-64
2022/07/04 10:28:04;;;;;;;3.80;1.30;;;;;;;24.42;36.37;99181.41;2620448;54;20034;-65
2022/07/04 10:30:36;;;;;;;2.70;1.20;;;;;;;24.57;36.04;99178.66;2620573;54;20038;-64
2022/07/04 10:33:11;;;;;;;4.47;1.13;;;;;;;24.68;35.76;99180.25;2620711;54;20030;-64
2022/07/04 10:35:54;;;;;;;2.55;0.93;;;;;;;24.67;35.33;99177.81;2622951;39;20418;-65
2022/07/04 10:38:24;;;;;;;0.98;0.77;;;;;;;24.75;33.67;99176.44;2621938;54;20574;-64
2022/07/04 10:40:56;;;;;;;1.42;1.00;;;;;;;24.88;33.21;99170.44;2621791;54;20030;-64
2022/07/04 10:44:07;;;;;;;1.13;0.70;;;;;;;25.15;32.45;99164.66;2621082;54;20039;-64
2022/07/04 10:46:38;;;;;;;1.02;0.70;;;;;;;25.15;31.71;99165.47;2621509;54;20031;-63
2022/07/04 10:49:18;;;;;;;1.98;0.70;;;;;;;25.14;29.21;99168.44;2621182;54;20059;-63
2022/07/04 10:51:52;;;;;;;1.58;0.70;;;;;;;25.20;28.84;99167.31;2620101;54;20038;-64
2022/07/04 10:54:24;;;;;;;2.13;0.60;;;;;;;25.14;28.36;99169.22;2620286;54;20067;-63
2022/07/04 10:56:57;;;;;;;1.65;0.82;;;;;;;25.21;27.54;99168.94;2622432;54;20550;-64
2022/07/04 10:59:28;;;;;;;0.57;0.50;;;;;;;25.20;28.21;99168.13;2622249;54;20035;-64
2022/07/04 11:02:29;;;;;;;1.55;1.10;;;;;;;25.25;29.13;99166.47;2620594;54;20061;-63
2022/07/04 11:05:01;;;;;;;3.47;0.85;;;;;;;25.18;30.11;99170.28;2620917;54;20094;-62
2022/07/04 11:08:07;;;;;;;2.15;0.68;;;;;;;25.22;29.42;99167.03;2620863;54;20034;-64
2022/07/04 11:10:40;;;;;;;1.33;0.90;;;;;;;25.11;29.63;99172.53;2621292;54;20045;-65
2022/07/04 11:13:19;;;;;;;0.80;0.80;;;;;;;25.14;29.76;99152.19;2620783;54;20045;-65
2022/07/04 11:16:03;;;;;;;1.77;0.70;;;;;;;25.21;30.18;99152.69;2620586;54;20052;-65
2022/07/04 11:18:41;;;;;;;1.38;0.77;;;;;;;25.14;30.69;99158.41;2620599;54;20034;-66
2022/07/04 11:21:24;;;;;;;1.00;0.85;;;;;;;25.13;30.65;99159.50;2620274;54;20041;-64
2022/07/04 11:23:58;;;;;;;3.08;0.85;;;;;;;25.16;30.82;99156.25;2620705;54;20075;-65
2022/07/04 11:26:28;;;;;;;3.53;0.77;;;;;;;25.31;30.69;99155.34;2620318;54;20039;-64
2022/07/04 11:28:58;;;;;;;2.05;0.90;;;;;;;25.34;30.68;99152.06;2620692;54;20034;-65
2022/07/04 11:31:39;;;;;;;1.77;0.80;;;;;;;25.43;29.86;99152.28;2619620;54;20034;-64
2022/07/04 11:34:09;;;;;;;3.58;0.98;;;;;;;25.57;30.01;99153.28;2619434;54;20019;-64
2022/07/04 11:36:41;;;;;;;1.17;0.77;;;;;;;25.60;29.12;99147.31;2619338;54;20030;-64
2022/07/04 11:39:18;;;;;;;0.82;0.57;;;;;;;25.57;29.50;99131.63;2619607;54;20038;-64
2022/07/04 11:47:19;;;;;;;2.13;0.90;;;;;;;25.76;29.39;99136.31;2618666;54;20053;-65
2022/07/04 11:49:51;;;;;;;2.50;1.10;;;;;;;25.75;29.06;99129.28;2619007;54;20592;-65
2022/07/04 11:52:23;;;;;;;1.23;1.05;;;;;;;25.86;28.87;99128.16;2622523;54;20534;-66
2022/07/04 11:55:17;;;;;;;2.80;0.95;;;;;;;26.00;29.09;99129.09;2619648;54;20027;-65
2022/07/04 11:57:48;;;;;;;3.25;0.90;;;;;;;26.05;29.62;99134.47;2618755;54;20014;-65
2022/07/04 12:00:19;;;;;;;2.33;1.00;;;;;;;25.92;29.82;99138.66;2619850;54;20038;-69
2022/07/04 12:02:50;;;;;;;2.25;1.00;;;;;;;25.90;29.50;99137.31;2620729;54;20022;-64
2022/07/04 12:05:21;;;;;;;0.90;0.80;;;;;;;25.92;29.49;99127.00;2620873;54;20078;-62
2022/07/04 12:07:51;;;;;;;2.22;1.00;;;;;;;26.08;29.32;99131.16;2621381;54;20029;-65
2022/07/04 12:10:43;;;;;;;2.55;1.00;;;;;;;26.21;28.66;99112.63;2620065;54;20053;-66
2022/07/04 12:13:19;;;;;;;2.55;0.70;;;;;;;26.15;28.77;99112.69;2619208;54;20027;-63
2022/07/04 12:15:52;;;;;;;2.90;0.63;;;;;;;26.17;28.49;99115.94;2619255;54;20611;-63
2022/07/04 12:18:23;;;;;;;1.13;0.70;;;;;;;26.13;28.44;99106.75;2618804;54;20045;-64
2022/07/04 12:20:55;;;;;;;0.85;0.70;;;;;;;26.19;28.58;99102.06;2618688;54;20103;-64
2022/07/04 12:23:28;;;;;;;3.72;0.80;;;;;;;26.33;28.69;99102.19;2618832;54;20039;-65
2022/07/04 12:26:00;;;;;;;1.67;0.73;;;;;;;26.49;27.99;99103.66;2619801;54;20022;-66
2022/07/04 12:28:37;;;;;;;2.00;0.60;;;;;;;26.51;27.65;99106.88;2620031;54;20038;-63
2022/07/04 12:31:08;;;;;;;1.35;1.00;;;;;;;26.48;27.98;99103.94;2619924;54;20038;-64
2022/07/04 12:33:37;;;;;;;1.58;0.80;;;;;;;26.66;27.83;99105.91;2619231;54;20026;-65
2022/07/04 12:36:09;;;;;;;2.35;0.70;;;;;;;26.82;27.56;99106.47;2619355;54;20030;-64
2022/07/04 12:38:41;;;;;;;1.63;0.80;;;;;;;26.94;27.41;99096.00;2620457;54;20030;-64
2022/07/04 12:41:15;;;;;;;1.70;0.88;;;;;;;27.10;27.07;99093.91;2622588;54;20065;-65
2022/07/04 12:43:51;;;;;;;1.33;0.80;;;;;;;27.26;26.86;99097.19;2622834;47;20573;-63
2022/07/04 12:46:30;;;;;;;2.35;1.00;;;;;;;27.25;26.69;99090.97;2622963;54;20035;-63
2022/07/04 12:49:01;;;;;;;3.75;0.90;;;;;;;27.21;26.58;99079.09;2621882;54;20045;-64
2022/07/04 12:51:33;;;;;;;1.20;0.60;;;;;;;27.16;26.33;99079.97;2622138;54;20030;-65
2022/07/04 12:54:09;;;;;;;3.90;1.00;;;;;;;27.10;26.25;99080.34;2622688;54;20033;-67
2022/07/04 12:56:47;;;;;;;0.70;0.70;;;;;;;27.09;26.39;99081.41;2621904;54;20042;-64
2022/07/04 12:59:18;;;;;;;1.90;0.70;;;;;;;27.22;26.29;99069.03;2620550;54;20031;-66
2022/07/04 13:01:48;;;;;;;2.50;0.68;;;;;;;27.34;26.31;99061.25;2621491;54;20046;-63
2022/07/04 13:04:18;;;;;;;3.28;0.75;;;;;;;27.52;26.76;99057.69;2620522;54;20131;-63
2022/07/04 13:06:49;;;;;;;2.42;1.10;;;;;;;27.70;26.68;99045.16;2619207;54;20038;-64
2022/07/04 13:09:19;;;;;;;1.33;0.70;;;;;;;27.83;26.53;99052.53;2618259;54;20023;-64
2022/07/04 13:14:33;;;;;;;1.15;1.08;;;;;;;27.45;26.72;99051.84;2619358;54;20034;-63
2022/07/04 13:17:03;;;;;;;3.83;0.77;;;;;;;27.28;27.50;99051.59;2619936;54;20074;-62
2022/07/04 13:19:32;;;;;;;3.40;0.82;;;;;;;27.44;27.53;99049.44;2620456;54;20045;-62
2022/07/04 13:22:02;;;;;;;3.70;1.15;;;;;;;27.60;27.09;99057.00;2622114;54;20046;-62
2022/07/04 13:24:32;;;;;;;0.73;0.73;;;;;;;27.78;27.41;99046.41;2622345;54;20031;-63
2022/07/04 13:27:04;;;;;;;1.55;0.80;;;;;;;27.82;27.25;99029.19;2622546;54;20057;-63
2022/07/04 13:29:34;;;;;;;4.00;0.88;;;;;;;27.85;27.11;99031.31;2622442;54;20030;-64
2022/07/04 13:32:05;;;;;;;3.25;1.00;;;;;;;27.74;27.10;99031.81;2622410;54;20037;-65
2022/07/04 13:34:40;;;;;;;0.88;0.77;;;;;;;27.47;26.81;99037.94;2622109;54;20039;-63
2022/07/04 13:37:10;;;;;;;0.73;0.60;;;;;;;27.58;27.08;99033.97;2621891;54;20030;-64
2022/07/04 13:39:39;;;;;;;3.00;1.08;;;;;;;27.83;26.72;99035.44;2622178;54;20055;-64
2022/07/04 13:45:04;;;;;;;2.10;0.90;;;;;;;28.22;25.99;99018.63;2622450;54;20034;-64
2022/07/04 13:47:34;;;;;;;4.63;0.80;;;;;;;28.23;26.49;99020.25;2623534;54;20122;-65
2022/07/04 13:50:04;;;;;;;1.95;0.90;;;;;;;28.27;26.05;99012.28;2623707;54;20046;-64
2022/07/04 13:52:33;;;;;;;1.60;1.15;;;;;;;28.38;25.85;99019.16;2624258;54;20042;-63
2022/07/04 13:55:03;;;;;;;1.67;0.80;;;;;;;28.54;25.74;99008.75;2624974;39;20423;-62
2022/07/04 13:57:35;;;;;;;2.75;0.90;;;;;;;28.79;25.49;99005.44;2624488;54;20035;-64
2022/07/04 14:00:06;;;;;;;2.15;0.90;;;;;;;28.95;25.27;99013.25;2623120;54;20031;-64
2022/07/04 14:02:35;;;;;;;0.75;0.70;;;;;;;28.89;25.11;99007.13;2623557;54;20058;-64
2022/07/04 14:05:06;;;;;;;3.08;1.02;;;;;;;28.89;25.20;99004.38;2623005;47;20212;-67
2022/07/04 14:07:35;;;;;;;4.45;0.93;;;;;;;28.73;24.90;98995.78;2622999;54;20096;-66
2022/07/04 14:10:06;;;;;;;2.63;0.70;;;;;;;28.93;25.27;98996.41;2628064;39;20211;-64
2022/07/04 14:12:38;;;;;;;0.90;0.63;;;;;;;29.09;24.93;98995.75;2623997;47;20038;-66
2022/07/04 14:15:09;;;;;;;2.40;0.80;;;;;;;29.01;25.05;98990.25;2624161;54;20039;-66
2022/07/04 14:17:39;;;;;;;1.65;0.77;;;;;;;29.04;24.53;98992.38;2624050;54;20027;-67
2022/07/04 14:20:11;;;;;;;1.25;0.70;;;;;;;28.91;24.86;98991.28;2624081;54;20038;-66
2022/07/04 14:22:41;;;;;;;1.50;0.83;;;;;;;29.06;24.87;98982.78;2624662;54;20033;-67
2022/07/04 14:25:11;;;;;;;2.00;0.80;;;;;;;29.21;24.60;98983.50;2625005;54;20062;-67
2022/07/04 14:27:43;;;;;;;1.08;0.80;;;;;;;29.36;24.27;98978.47;2626673;39;20085;-68
2022/07/04 14:30:13;;;;;;;1.55;0.80;;;;;;;29.16;24.46;98984.44;2625381;39;20439;-67
2022/07/04 14:32:43;;;;;;;1.83;0.60;;;;;;;29.13;24.04;98980.41;2624526;54;20026;-67
2022/07/04 14:35:13;;;;;;;1.65;0.70;;;;;;;29.02;24.16;98979.06;2622997;54;20561;-67
2022/07/04 14:37:43;;;;;;;3.08;0.70;;;;;;;28.68;24.37;98979.59;2622897;54;20042;-67
2022/07/04 14:40:14;;;;;;;1.48;0.95;;;;;;;28.61;24.12;98977.28;2621513;47;20554;-67
2022/07/04 14:42:48;;;;;;;1.42;0.73;;;;;;;28.53;24.00;98961.69;2622860;54;20019;-67
2022/07/04 14:45:17;;;;;;;3.17;1.10;;;;;;;28.72;23.44;98968.91;2623392;54;20030;-66
2022/07/04 14:47:47;;;;;;;0.55;0.50;;;;;;;28.74;23.44;98969.38;2623352;54;20566;-66
2022/07/04 14:50:17;;;;;;;6.20;1.08;;;;;;;28.91;23.85;98957.84;2623051;54;20034;-67
2022/07/04 14:52:47;;;;;;;4.45;0.60;;;;;;;29.13;23.05;98952.41;2623251;54;20166;-67
2022/07/04 14:55:16;;;;;;;1.25;0.70;;;;;;;29.43;23.00;98952.72;2623743;54;20023;-66
2022/07/04 14:57:48;;;;;;;0.65;0.50;;;;;;;29.56;22.36;98949.94;2623354;54;20026;-66
2022/07/04 15:00:19;;;;;;;1.52;0.88;;;;;;;29.53;22.02;98941.56;2623436;39;20423;-66
2022/07/04 15:02:49;;;;;;;0.70;0.57;;;;;;;29.52;22.37;98938.03;2622974;54;20609;-68
2022/07/04 15:05:19;;;;;;;2.13;0.85;;;;;;;29.79;22.21;98934.28;2624048;39;20406;-67
2022/07/04 15:07:49;;;;;;;1.25;0.68;;;;;;;30.03;22.11;98941.25;2623535;39;20474;-67
2022/07/04 15:10:19;;;;;;;1.40;0.70;;;;;;;29.88;22.20;98938.97;2624357;39;20438;-67
2022/07/04 15:13:03;;;;;;;0.70;0.50;;;;;;;29.92;22.44;98939.94;2623470;47;20038;-67
2022/07/04 15:15:33;;;;;;;0.70;0.68;;;;;;;29.99;22.08;98948.47;2623837;39;20433;-66
2022/07/04 15:18:13;;;;;;;1.33;0.68;;;;;;;29.69;21.38;98937.31;2624579;54;20037;-67
2022/07/04 15:26:06;;;;;;;1.20;1.03;;;;;;;30.21;21.56;98940.19;2618818;54;20074;-66
2022/07/04 15:28:38;;;;;;;2.67;1.20;;;;;;;29.91;22.21;98930.97;2618034;54;20046;-66
2022/07/04 15:31:08;;;;;;;0.93;0.90;;;;;;;29.95;21.68;98931.13;2618288;39;20447;-66
2022/07/04 15:33:40;;;;;;;2.95;0.70;;;;;;;29.53;21.77;98936.91;2618055;54;20039;-67
2022/07/04 15:36:10;;;;;;;1.93;0.50;;;;;;;29.26;21.87;98927.00;2618654;54;20038;-67
2022/07/04 15:38:39;;;;;;;0.73;0.50;;;;;;;29.18;22.37;98933.22;2619466;54;20573;-66
2022/07/04 15:41:10;;;;;;;0.82;0.65;;;;;;;29.27;22.10;98931.34;2620927;54;20070;-67
2022/07/04 15:43:42;;;;;;;2.25;0.70;;;;;;;29.25;22.79;98930.06;2622298;39;20446;-66
2022/07/04 15:46:12;;;;;;;2.50;0.57;;;;;;;29.50;23.02;98940.25;2620758;54;20030;-68